• Join FlightAware (Why Join?)
  • Login
  • US Flag 
10:28PM EST


 

Airport Tracker/Info


-or-


 

Live Flight TrackerFlight Track Log ✈ AIE304 ✈ 17-Jun-2013 ✈ CYUL - CYGL

Flight Track Log - Related Links

Times and Time Zones

All times are in EDT time to prevent confusion due to time zone crossing. See the AIE304 flight status page for this flight to view local times or setup timezone preferences in your user account.

Time Position Orientation Groundspeed Altitude Reporting Facility
EDT Latitude Longitude Course Direction KTS MPH feet Rate Location/Type
09:30AM 45.4500 -73.7500 90° East 10 12 100  Level Montreal Center
09:33AM 45.4500 -73.7167 90° East 10 12 100 11 Level Montreal Center
09:36AM 45.5617 -73.7586 345° North  Level FlightAware Approximate
09:40AM 45.4667 -73.7000 353° North 10 12 200  Level Montreal Center
09:41AM 45.4500 -73.7167 215° Southwest 240 276 600 805 Climbing Montreal Center
09:42AM 45.4000 -73.7667 215° Southwest 190 219 2,200 2,050 Climbing Montreal Center
09:43AM 46.2468 -74.0449 351° North  Level Estimated
09:43AM 45.3667 -73.8500 240° Southwest 210 242 4,700  Level Montreal Center
09:44AM 46.3450 -74.0054 15° North  Level FlightAware Approximate
09:44AM 45.4333 -73.8833 341° North 260 299 7,400  Level Montreal Center
09:45AM 46.4426 -74.0479 353° North  Level Estimated
09:45AM 45.5167 -73.8833 360° North 280 322 9,900  Level Montreal Center
09:46AM 45.6000 -73.8833 360° North 320 368 11,400 1,600 Climbing Montreal Center
09:47AM 45.7000 -73.9000 353° North 350 403 13,100 1,950 Climbing Montreal Center
09:48AM 45.8000 -73.9000 360° North 370 426 15,300 2,000 Climbing Montreal Center
09:49AM 45.9000 -73.9000 360° North 380 437 17,100 2,050 Climbing Montreal Center
09:50AM 46.0167 -73.8833 North 390 449 19,400 2,100 Climbing Montreal Center
09:51AM 46.1333 -73.9167 349° North 390 449 21,300 1,600 Climbing Montreal Center
09:52AM 46.2500 -73.9500 349° North 400 460 22,600 1,300 Climbing Montreal Center
09:53AM 46.3500 -73.9833 347° North 410 472 23,900 1,250 Climbing Montreal Center
09:54AM 46.4833 -74.0000 355° North 420 483 25,100 1,400 Climbing Montreal Center
09:55AM 46.5833 -74.0167 353° North 430 495 26,700 1,500 Climbing Montreal Center
09:56AM 46.7000 -74.0333 354° North 420 483 28,100 1,350 Climbing Montreal Center
09:57AM 46.8167 -74.0833 344° North 420 483 29,400 950 Climbing Montreal Center
09:58AM 46.9333 -74.1000 354° North 420 483 30,000 300 Climbing Montreal Center
09:59AM 47.0500 -74.1167 354° North 430 495 30,000  Level Montreal Center
10:00AM 47.1667 -74.1333 354° North 440 506 30,000  Level Montreal Center
10:01AM 47.2833 -74.2167 334° Northwest 430 495 30,000  Level Montreal Center
10:02AM 47.4000 -74.2500 349° North 430 495 30,000  Level Montreal Center
10:03AM 47.5167 -74.3000 344° North 420 483 30,000  Level Montreal Center
10:04AM 47.6333 -74.3667 339° North 430 495 30,000  Level Montreal Center
10:05AM 47.7500 -74.4167 344° North 420 483 30,000  Level Montreal Center
10:06AM 47.8500 -74.4667 341° North 420 483 30,000  Level Montreal Center
10:07AM 47.9667 -74.5333 339° North 420 483 30,000  Level Montreal Center
10:08AM 48.0667 -74.5833 342° North 420 483 30,000  Level Montreal Center
10:09AM 48.1833 -74.6500 339° North 420 483 30,000  Level Montreal Center
10:10AM 48.3000 -74.7000 344° North 420 483 30,000  Level Montreal Center
10:11AM 48.4167 -74.7500 344° North 420 483 30,000  Level Montreal Center
10:12AM 48.5167 -74.8000 342° North 420 483 30,000  Level Montreal Center
10:13AM 48.6333 -74.8667 339° North 420 483 30,000  Level Montreal Center
10:14AM 48.7500 -74.9167 344° North 420 483 30,000  Level Montreal Center
10:15AM 48.8500 -74.9667 342° North 420 483 30,000  Level Montreal Center
10:16AM 48.9667 -75.0500 335° Northwest 420 483 30,000  Level Montreal Center
10:17AM 49.0833 -75.1000 344° North 420 483 30,000  Level Montreal Center
10:18AM 49.2000 -75.1500 344° North 420 483 30,000  Level Montreal Center
10:19AM 49.3000 -75.2167 337° Northwest 420 483 30,000  Level Montreal Center
10:20AM 49.4167 -75.2667 344° North 420 483 30,000  Level Montreal Center
10:21AM 49.5167 -75.3167 342° North 420 483 30,000  Level Montreal Center
10:22AM 49.6333 -75.4000 335° Northwest 420 483 30,000  Level Montreal Center
10:23AM 49.7500 -75.4500 345° North 420 483 30,000  Level Montreal Center
10:24AM 49.8500 -75.5167 337° Northwest 430 495 30,000  Level Montreal Center
10:25AM 49.9667 -75.5667 345° North 420 483 30,000  Level Montreal Center
10:26AM 50.1000 -75.6167 346° North 420 483 30,000  Level Montreal Center
10:27AM 50.2000 -75.6833 337° Northwest 420 483 30,000  Level Montreal Center
10:28AM 50.3167 -75.7500 340° North 420 483 30,000  Level Montreal Center
10:29AM 50.4333 -75.8000 345° North 420 483 30,000  Level Montreal Center
10:30AM 50.5333 -75.8833 332° Northwest 420 483 30,000  Level Montreal Center
10:31AM 50.6500 -75.9333 345° North 420 483 30,000  Level Montreal Center
10:32AM 50.7667 -76.0000 340° North 420 483 30,000  Level Montreal Center
10:33AM 50.8667 -76.0667 337° Northwest 420 483 30,000  Level Montreal Center
10:34AM 50.9833 -76.1333 340° North 420 483 30,000  Level Montreal Center
10:35AM 51.1000 -76.1833 345° North 420 483 30,000  Level Montreal Center
10:36AM 51.2000 -76.2667 332° Northwest 420 483 30,000  Level Montreal Center
10:37AM 51.3167 -76.3167 345° North 420 483 30,000  Level Montreal Center
10:38AM 51.4167 -76.3667 343° North 420 483 30,000  Level Montreal Center
10:39AM 51.5333 -76.4500 336° Northwest 420 483 30,000  Level Montreal Center
10:40AM 51.6500 -76.5000 345° North 420 483 30,000  Level Montreal Center
10:41AM 51.7500 -76.5667 338° Northwest 420 483 30,000  Level Montreal Center
10:42AM 51.8667 -76.6500 336° Northwest 420 483 30,000  Level Montreal Center
10:43AM 51.9833 -76.7000 345° North 420 483 30,000  Level Montreal Center
10:44AM 52.1000 -76.7667 341° North 420 483 30,000 -450 Level Montreal Center
10:45AM 52.2167 -76.8500 336° Northwest 420 483 29,100 -1,450 Descending Montreal Center
10:46AM 52.3167 -76.9000 343° North 400 460 27,100 -2,150 Descending Montreal Center
10:47AM 52.4167 -76.9500 343° North 380 437 24,800 -2,200 Descending Montreal Center
10:48AM 52.5167 -77.0167 338° Northwest 370 426 22,700 -2,150 Descending Montreal Center
10:49AM 52.6000 -77.0667 340° North 360 414 20,500 -2,100 Descending Montreal Center
10:50AM 52.7000 -77.1333 338° Northwest 350 403 18,500 -2,050 Descending Montreal Center
10:51AM 52.7833 -77.1833 340° North 340 391 16,400 -2,050 Descending Montreal Center
10:52AM 52.8667 -77.2167 346° North 330 380 14,400 -1,950 Descending Montreal Center
10:53AM 52.9500 -77.2833 334° Northwest 330 380 12,500 -1,950 Descending Montreal Center
10:54AM 53.0500 -77.3000 354° North 320 368 10,500 -1,700 Descending Montreal Center
10:55AM 53.1333 -77.3333 347° North 310 357 9,100 -1,300 Descending Montreal Center
10:56AM 53.2000 -77.4000 329° Northwest 290 334 7,900 -1,150 Descending Montreal Center
10:57AM 53.2833 -77.4333 347° North 270 311 6,800 -1,100 Descending Montreal Center
10:58AM 53.3500 -77.4667 343° North 260 299 5,700 -1,150 Descending Montreal Center
10:59AM 53.4000 -77.4833 349° North 250 288 4,500 -1,050 Descending Montreal Center
11:00AM 53.4667 -77.5500 329° Northwest 250 288 3,600 -800 Descending Montreal Center
11:01AM 53.5333 -77.5833 343° North 240 276 2,900 -500 Descending Montreal Center
11:02AM 53.6000 -77.6167 343° North 220 253 2,600 -300 Descending Montreal Center